Aviation Digital Data Service (ADDS)

Output produced by METARs form (0142 UTC 23 November 2017)
found at http://www.aviationweather.gov/adds/metars/
 
EVLA 230120Z AUTO 15008KT 7000 -RASN OVC005/// 01/01 Q1009
TAF EVLA 222302Z 2300/2324 15010KT 9999 SCT005 OVC012 
     TEMPO 2300/2301 15015G27KT 4000 SNRA BKN005 OVC015 
     BECMG 2301/2303 3000 -DZ BR OVC002 
     PROB40 
     TEMPO 2303/2309 0500 FG VV001 
     BECMG 2309/2311 SCT012
       
EVRA 230120Z 15012KT 9999 SCT013 M00/M02 Q1014 R18/190095 NOSIG
TAF EVRA 222300Z 2300/2324 15010KT 9999 OVC012 
     TEMPO 2302/2307 15015G25KT 4000 SN FZDZ BKN005 OVC012 
     BECMG 2307/2309 OVC002
       
EVVA 230120Z AUTO 14010KT 6000 -RASN OVC009 01/00 Q1009